Tiempo atmosférico en la estación meteorológica de Hinojosa Del Duque, Córdoba (540 m.)



Fecha
DESCASC
Temp. máxima en grados centígrados (hora)
DESCASC
Temp. mínima en grados centígrados (hora)
DESCASC
Temp. media en grados centígrados
DESCASC
Racha de viento máxima en m/sg (hora)
DESCASC
Velocidad máxima media en intervalos de 10 minutos(hora)
DESCASC
Precipitaciones diarias en mm
DESCASC
Precipitaciones de 00:00 a 06:00 en mm
DESCASC
Precipitaciones de 06:00 a 12:00 en mm
DESCASC
Precipitaciones de 12:00 a 18:00 en mm
DESCASC
Precipitaciones de 18:00 a 24:00 en mm
DESCASC
15-08-2019 36.4 (17:30) 18.4 (07:50) 27.4 8.61 (19:10) 5.56 (19:10) 0 0 0 0 0
14-08-2019 34.8 (16:30) 15.6 (00:00) 25.2 8.61 (18:30) 4.44 (20:10) 0 0 0 0 0
13-08-2019 32.6 (16:30) 15.4 (00:00) 24 6.39 (21:00) 4.72 (21:00) 0 0 0 0 0
12-08-2019 30.4 (17:50) 12.9 (00:00) 21.6 8.61 (15:00) 4.72 (03:40) 0 0 0 0 0
11-08-2019 28.5 (16:00) 15.1 (00:00) 21.8 10 (17:10) 6.67 (20:40) 0 0 0 0 0
10-08-2019 32.9 (17:40) 17.5 (00:00) 25.2 9.72 (15:30) 6.39 (20:50) 0 0 0 0 0
09-08-2019 33.7 (17:10) 18.1 (00:00) 25.9 11.39 (19:20) 8.61 (19:20) 0 0 0 0 0
08-08-2019 35.8 (18:00) 17.1 (00:00) 26.4 9.72 (19:40) 5.56 (19:20) 0 0 0 0 0
07-08-2019 29.8 (15:00) 17.9 (00:00) 23.8 8.89 (16:20) 5.83 (16:20) 0 0 0 0 0
06-08-2019 36.8 (17:10) 17.4 (00:00) 27.1 10.83 (19:30) 7.22 (20:20) 0 0 0 0 0
05-08-2019 36.5 (16:40) 17.3 (00:00) 26.9 9.17 (20:20) 7.22 (20:40) 0 0 0 0 0
04-08-2019 35.8 (17:50) 18.4 (00:00) 27.1 7.78 (17:00) 5.83 (20:50) 0 0 0 0 0
03-08-2019 36.1 (17:40) 17.5 (00:00) 26.8 10.56 (19:20) 5.56 (19:00) 0 0 0 0 0
02-08-2019 36.4 (18:30) 17.2 (00:00) 26.8 10.83 (18:50) 6.39 (19:00) 0 0 0 0 0
01-08-2019 34.9 (18:10) 19.3 (00:00) 27.1 8.89 (20:40) 6.94 (20:50) 0 0 0 0 0
31-07-2019 36 (17:20) 16.6 (00:00) 26.3 7.22 (17:40) 4.44 (21:00) 0 0 0 0 0
30-07-2019 31.8 (18:00) 14.5 (00:00) 23.1 8.06 (03:40) 6.11 (03:40) 0 0 0 0 0
29-07-2019 32.5 (17:00) 17.2 (00:00) 24.9 11.11 (17:50) 6.67 (20:30) 0 0 0 0 0
28-07-2019 30.6 (18:50) 14.6 (00:00) 22.6 6.67 (17:30) 3.89 (21:20) 0 0 0 0 0
27-07-2019 25.7 (18:50) 14.2 (00:00) 20 10.83 (17:10) 7.5 (19:20) 0 0 0 0 0
26-07-2019 29.6 (16:00) 19 (00:00) 24.3 11.11 (19:10) 6.67 (19:30) 0 0 0 0 0
25-07-2019 36.1 (17:30) 20.6 (00:00) 28.3 9.17 (20:40) 6.67 (20:40) 0 0 0 0 0
24-07-2019 37.7 (17:00) 21.5 (00:00) 29.6 8.61 (17:20) 5.28 (17:20) 0 0 0 0 0
23-07-2019 37.6 (16:30) 23.8 (00:00) 30.7 11.67 (14:00) 5.83 (02:50) 0 0 0 0 0
22-07-2019 -- (--) -- (--) -- -- (--) -- (--) -- 0 -- 0 0
21-07-2019 38.9 (17:40) 21.3 (00:00) 30.1 6.94 (20:50) 5.28 (20:50) 0 0 0 0 0
20-07-2019 38 (16:50) 22.6 (00:00) 30.3 8.33 (17:20) 5 (17:20) 0 0 0 0 0
19-07-2019 38.6 (18:20) 20.3 (00:00) 29.4 6.67 (15:50) 3.89 (21:00) 0 0 0 0 0

Gráficas

Temp. máximas Temp. mínimas Temp. medias Precipitaciones Rachas de viento máximas Velocidades máximas media en intervalos de 10 minutos

Datos horarios

Fecha y hora oficial Temperatura (ºC) Velocidad del viento (km/h) Dirección del viento Racha (km/h) Dirección de racha Precipitación (mm) Presión (hPa) Tendencia (hPa) Humedad (%)
2019-08-17 23:00:00 27.4 9 Noroeste 15 Noroeste 0 950.6 1.5 32
2019-08-17 22:00:00 29.8 13 Noroeste 20 Noroeste 0 950 0.6 33
2019-08-17 21:00:00 32.3 17 Noroeste 27 Oeste 0 949.5 -0.3 32
2019-08-17 20:00:00 36.2 16 Oeste 26 Oeste 0 949.1 -1.2 28
2019-08-17 19:00:00 36.9 19 Oeste 32 Oeste 0 949.4 -1.5 28
2019-08-17 18:00:00 37.7 12 Oeste 37 Oeste 0 949.8 -1.7 28
2019-08-17 17:00:00 37.3 14 Sudoeste 26 Oeste 0 950.3 -1.7 29
2019-08-17 16:00:00 37.2 13 Sur 30 Sudeste 0 950.9 -1.5 29
2019-08-17 15:00:00 36.1 15 Sudoeste 29 Sudoeste 0 951.5 -1.7 30
2019-08-17 14:00:00 36.1 9 Sudoeste 28 Sudoeste 0 952 -1.4 31
2019-08-17 13:00:00 34.1 2 Sudeste 22 Sudeste 0 952.4 -1.1 33
2019-08-17 12:00:00 33 6 Sudeste 15 Sudeste 0 953.2 -0.1 35
2019-08-17 11:00:00 31.1 3 Sudeste 9 Sudeste 0 953.4 0.5 37
2019-08-17 10:00:00 28.1 3 Sur 6 Sudeste 0 953.5 0.9 41
2019-08-17 09:00:00 23.3 3 Sur 8 Sudeste 0 953.3 0.9 48
2019-08-17 08:00:00 20.2 5 Sudeste 7 Sur 0 952.9 0.3 50
2019-08-17 07:00:00 19.5 6 Sur 9 Sur 0 952.6 0 49
2019-08-17 06:00:00 20.9 5 Sur 8 Sudoeste 0 952.4 -0.5 47
2019-08-17 05:00:00 21.6 3 Sudoeste 6 Sudoeste 0 952.6 -0.5 46
2019-08-17 04:00:00 22.1 3 Sudoeste 9 Sudoeste 0 952.6 -0.6 45
2019-08-17 03:00:00 22.2 4 Sudoeste 8 Noroeste 0 952.9 -0.1 43
2019-08-17 02:00:00 23.9 9 Oeste 14 Noroeste 0 953.1 0 40
2019-08-17 01:00:00 25.9 10 Oeste 13 Oeste 0 953.2 0.8 39
2019-08-17 00:00:00 27.5 8 Sudoeste 12 Sudoeste 0 953 1.6 35
2019-08-16 23:00:00 28.1 6 Sur 9 Sur 0 953.1 1.9 33
2019-08-16 22:00:00 29.6 0 Calma 26 Noroeste 0 952.4 1.3 32
2019-08-16 21:00:00 32.8 15 Noroeste 28 Norte 0 951.4 0 32
2019-08-16 20:00:00 36.1 11 Noroeste 26 Oeste 0 951.2 -0.7 29
2019-08-16 19:00:00 36.3 10 Oeste 29 Oeste 0 951.1 -1.5 28
2019-08-16 18:00:00 37.3 14 Oeste 30 Oeste 0 951.4 -1.8 29
2019-08-16 17:00:00 37.2 8 Oeste 28 Oeste 0 951.9 -1.5 30
2019-08-16 16:00:00 37 15 Oeste 30 Oeste 0 952.6 -1.5 30
2019-08-16 15:00:00 36.1 13 Sudoeste 27 Sudoeste 0 953.2 -1.1 32
2019-08-16 14:00:00 35.4 10 Sudoeste 23 Sudoeste 0 953.4 -0.9 32
2019-08-16 13:00:00 34.9 4 Sudoeste 18 Sudoeste 0 954.1 -0.1 34
2019-08-16 12:00:00 33.1 5 Sudoeste 13 Sudoeste 0 954.3 0.2 38
2019-08-16 11:00:00 30.4 5 Sudoeste 12 Oeste 0 954.3 0.5 41
2019-08-16 10:00:00 27.4 6 Sudoeste 10 Sudoeste 0 954.2 0.7 45
2019-08-16 09:00:00 23.5 5 Sur 8 Sudeste 0 954.1 1.1 50
2019-08-16 08:00:00 19.4 7 Sur 8 Sur 0 953.8 0.7 53
2019-08-16 07:00:00 20.7 2 Sur 10 Sudoeste 0 953.5 0.2 51
2019-08-16 06:00:00 21 6 Sudoeste 12 Sudoeste 0 953 -0.5 48
2019-08-16 05:00:00 22.9 4 Oeste 11 Oeste 0 953.1 -0.6 44
2019-08-16 04:00:00 24.3 9 Oeste 14 Sudoeste 0 953.3 -0.5 42
2019-08-16 03:00:00 24.8 9 Noroeste 15 Oeste 0 953.5 0 40
2019-08-16 02:00:00 26.4 9 Oeste 16 Oeste 0 953.7 0.1 39
2019-08-16 01:00:00 26.5 6 Sudoeste 16 Sudoeste 0 953.8 0.7 38
2019-08-16 00:00:00 26.7 4 Oeste 7 Noroeste 0 953.5 0.8 37
2019-08-15 23:00:00 28.8 6 Norte 10 Noroeste 0 953.6 1.2 35
2019-08-15 22:00:00 28.5 9 Noroeste 15 Noroeste 0 953.1 0.7 33
2019-08-15 21:00:00 32.2 13 Noroeste 23 Noroeste 0 952.7 -0.1 31
2019-08-15 20:00:00 34.2 15 Noroeste 31 Noroeste 0 952.4 -0.6 30
2019-08-15 19:00:00 35.1 9 Noroeste 27 Noroeste 0 952.4 -1.1 29
2019-08-15 18:00:00 35.9 9 Noroeste 29 Noroeste 0 952.8 -1.2 29
2019-08-15 17:00:00 36.1 16 Norte 26 Norte 0 953 -1.5 29
2019-08-15 16:00:00 35.7 10 Oeste 23 Noroeste 0 953.5 -1.3 29
2019-08-15 15:00:00 34.8 10 Noroeste 26 Noroeste 0 954 -1.3 29
2019-08-15 14:00:00 33.9 8 Norte 21 Oeste 0 954.5 -0.7 29
2019-08-15 13:00:00 33.6 2 Oeste 14 Noroeste 0 954.8 -0.4 30
2019-08-15 12:00:00 31.9 0 Calma 9 Noroeste 0 955.3 0.3 34
2019-08-15 11:00:00 29.5 0 Calma 8 Noroeste 0 955.2 0.5 37
2019-08-15 10:00:00 26.1 5 Noroeste 7 Noroeste 0 955.2 0.9 41
2019-08-15 09:00:00 23.5 2 Sudoeste 5 Sur 0 955 0.9 43
2019-08-15 08:00:00 18.7 2 Sudeste 6 Oeste 0 954.7 0.7 46
2019-08-15 07:00:00 19.1 4 Sudoeste 8 Sudoeste 0 954.3 0.2 45
2019-08-15 06:00:00 20.1 4 Sudoeste 10 Oeste 0 954.1 -0.1 43
2019-08-15 05:00:00 20.8 6 Oeste 10 Oeste 0 954 -0.7 40
2019-08-15 04:00:00 21.2 8 Oeste 10 Oeste 0 954.1 -0.5 37
2019-08-15 03:00:00 22.3 6 Oeste 11 Oeste 0 954.2 -0.5 36
2019-08-15 02:00:00 22.2 6 Sudoeste 10 Sudoeste 0 954.7 0.1 35
2019-08-15 01:00:00 21.8 5 Sudoeste 6 Sudoeste 0 954.6 0.5 35
2019-08-15 00:00:00 24.5 3 Noroeste 8 Norte 0 954.7 0.9 33
2019-08-14 23:00:00 26.2 6 Noroeste 10 Norte 0 954.6 1 31
2019-08-14 22:00:00 26.8 10 Norte 12 Norte 0 954.1 0.5 30
2019-08-14 21:00:00 30.4 11 Noroeste 20 Noroeste 0 953.8 0 27
2019-08-14 20:00:00 32.7 15 Noroeste 26 Norte 0 953.6 -0.5 26
2019-08-14 19:00:00 33.6 13 Norte 31 Noroeste 0 953.6 -1 25
2019-08-14 18:00:00 34.8 8 Oeste 24 Noroeste 0 953.8 -1.4 25
2019-08-14 17:00:00 34.3 14 Noroeste 29 Norte 0 954.1 -1.7 25
2019-08-14 16:00:00 33.3 6 Noroeste 23 Oeste 0 954.6 -1.5 26
2019-08-14 15:00:00 33.3 8 Oeste 24 Noroeste 0 955.2 -0.9 26
2019-08-14 14:00:00 31.9 5 Noroeste 22 Oeste 0 955.8 -0.2 27
2019-08-14 13:00:00 31.3 7 Noroeste 14 Norte 0 956.1 0.1 29
2019-08-14 12:00:00 30.1 3 Noroeste 10 Noroeste 0 956.1 0.4 30
2019-08-14 11:00:00 27.7 2 Sur 6 Sudeste 0 956 0.7 30
2019-08-14 10:00:00 24.6 0 Calma 6 Noroeste 0 956 1.2 33
2019-08-14 09:00:00 21.4 0 Calma 8 Sudeste 0 955.7 1 36
2019-08-14 08:00:00 16.2 0 Calma 6 Sudeste 0 955.3 0.7 38
2019-08-14 07:00:00 17.3 3 Sur 7 Oeste 0 954.8 0.1 36
2019-08-14 06:00:00 18 4 Oeste 7 Noroeste 0 954.7 -0.1 35
2019-08-14 05:00:00 18.3 7 Oeste 9 Oeste 0 954.6 -0.3 34
2019-08-14 04:00:00 17.5 3 Sudoeste 5 Sur 0 954.7 0 34
2019-08-14 03:00:00 17.4 8 Sur 11 Sur 0 954.8 0.3 32
2019-08-14 02:00:00 19.3 3 Sudoeste 8 Oeste 0 954.9 0.8 31
2019-08-14 01:00:00 20.5 6 Oeste 7 Oeste 0 954.7 1 30
2019-08-14 00:00:00 21.6 0 Calma 5 Noroeste 0 954.5 1.3 29
2019-08-13 23:00:00 23.9 5 Noroeste 11 Norte 0 954.1 1.3 27
2019-08-13 22:00:00 24.8 10 Norte 20 Norte 0 953.7 1 27
2019-08-13 21:00:00 28.8 17 Norte 23 Norte 0 953.2 0.2 26
2019-08-13 20:00:00 31.4 10 Noroeste 20 Oeste 0 952.8 -0.6 25
2019-08-13 19:00:00 32.4 9 Noroeste 16 Noroeste 0 952.7 -1.2 25
2019-08-13 18:00:00 31.5 5 Este 21 Oeste 0 953 -1.5 25
2019-08-13 17:00:00 32.1 5 Norte 22 Oeste 0 953.4 -1.3 25
2019-08-13 16:00:00 31.6 6 Oeste 19 Oeste 0 953.9 -1 26
2019-08-13 15:00:00 31.2 5 Norte 19 Noroeste 0 954.5 -0.5 26
2019-08-13 14:00:00 30 9 Norte 19 Norte 0 954.7 -0.1 27
2019-08-13 13:00:00 29.8 3 Noroeste 13 Noroeste 0 954.9 0.4 29
2019-08-13 12:00:00 27.8 2 Nordeste 8 Sudeste 0 955 0.9 30
2019-08-13 11:00:00 26.1 2 Nordeste 8 Este 0 954.8 1.1 32
2019-08-13 10:00:00 22.5 5 Norte 9 Norte 0 954.5 1.3 36
2019-08-13 09:00:00 19.4 3 Noroeste 4 Noroeste 0 954.1 1.1 39
2019-08-13 08:00:00 16.1 0 Calma 4 Oeste 0 953.7 0.7 41
2019-08-13 07:00:00 16.9 5 Nordeste 14 Norte 0 953.2 -0.3 39
2019-08-13 06:00:00 16.4 10 Norte 12 Norte 0 953 -0.7 42
2019-08-13 05:00:00 17.2 6 Noroeste 8 Noroeste 0 953 -1 42
2019-08-13 04:00:00 18.2 3 Oeste 8 Noroeste 0 953.5 -0.5 41
2019-08-13 03:00:00 18.9 7 Noroeste 10 Noroeste 0 953.7 0 40
2019-08-13 02:00:00 19.4 10 Norte 12 Norte 0 954 0.5 39
2019-08-13 01:00:00 20 8 Noroeste 10 Noroeste 0 954 1.3 37
2019-08-13 00:00:00 20.9 10 Noroeste 12 Norte 0 953.7 1.4 33
2019-08-12 23:00:00 21.3 9 Noroeste 15 Norte 0 953.5 1.6 31
2019-08-12 22:00:00 24.1 13 Norte 18 Noroeste 0 952.7 1 29
2019-08-12 21:00:00 26.7 14 Norte 22 Norte 0 952.3 0.2 27
2019-08-12 20:00:00 28.8 11 Norte 25 Norte 0 951.9 -0.5 27
2019-08-12 19:00:00 29.6 9 Norte 23 Norte 0 951.7 -1.3 27
2019-08-12 18:00:00 29.7 9 Norte 27 Norte 0 952.1 -1.5 27
2019-08-12 17:00:00 28.7 6 Este 21 Este 0 952.4 -1.8 27
2019-08-12 16:00:00 28.7 8 Noroeste 21 Este 0 953 -1.7 29
2019-08-12 15:00:00 27.3 10 Nordeste 31 Este 0 953.6 -1.3 30
2019-08-12 14:00:00 25.8 11 Nordeste 25 Este 0 954.2 -0.4 33
2019-08-12 13:00:00 24 9 Norte 20 Norte 0 954.7 0.1 40
2019-08-12 12:00:00 22 8 Nordeste 17 Nordeste 0 954.9 0.7 45
2019-08-12 11:00:00 19.7 8 Noroeste 17 Noroeste 0 954.6 0.9 52
2019-08-12 10:00:00 17.5 13 Noroeste 22 Noroeste 0 954.6 1 58
2019-08-12 09:00:00 15.6 14 Noroeste 19 Noroeste 0 954.2 0.4 63
2019-08-12 08:00:00 13.7 13 Oeste 18 Noroeste 0 953.7 0 67
2019-08-12 07:00:00 13.8 14 Oeste 21 Oeste 0 953.6 -0.4 64
2019-08-12 06:00:00 14.4 13 Noroeste 17 Oeste 0 953.8 -0.4 61
2019-08-12 05:00:00 14.9 10 Noroeste 18 Noroeste 0 953.7 -0.9 57
2019-08-12 04:00:00 16.4 16 Oeste 21 Oeste 0 954 -0.6 52
2019-08-12 03:00:00 17 15 Oeste 20 Noroeste 0 954.2 -0.4 46
2019-08-12 02:00:00 17.7 9 Noroeste 11 Noroeste 0 954.6 0 40
2019-08-12 01:00:00 18.7 7 Noroeste 16 Noroeste 0 954.6 0.7 38
2019-08-12 00:00:00 19.9 5 Oeste 9 Noroeste 0 954.6 1.1 37
2019-08-11 23:00:00 19.7 5 Noroeste 11 Noroeste 0 954.6 1.6 37
2019-08-11 22:00:00 21.4 11 Noroeste 26 Noroeste 0 953.9 0.9 36
2019-08-11 21:00:00 23.6 19 Noroeste 33 Noroeste 0 953.5 0.2 34
2019-08-11 20:00:00 25.2 19 Noroeste 33 Noroeste 0 953 -0.5 32
2019-08-11 19:00:00 27.1 19 Noroeste 35 Norte 0 953 -0.9 30
2019-08-11 18:00:00 26.7 18 Noroeste 36 Oeste 0 953.3 -1.1 30
2019-08-11 17:00:00 27.3 21 Noroeste 33 Oeste 0 953.5 -1.2 32
2019-08-11 16:00:00 28.1 17 Noroeste 31 Oeste 0 953.9 -1 30
2019-08-11 15:00:00 27 19 Oeste 33 Noroeste 0 954.4 -0.4 31
2019-08-11 14:00:00 26.4 19 Noroeste 35 Oeste 0 954.7 -0.1 34
2019-08-11 13:00:00 25 14 Noroeste 26 Oeste 0 954.9 0.1 44
2019-08-11 12:00:00 23.1 12 Oeste 21 Oeste 0 954.8 0.2 50
2019-08-11 11:00:00 21.6 12 Oeste 21 Oeste 0 954.8 0.9 52
2019-08-11 10:00:00 19.5 12 Oeste 17 Oeste 0 954.8 1.1 56
2019-08-11 09:00:00 17.6 13 Oeste 19 Oeste 0 954.6 1.5 60
2019-08-11 08:00:00 16 14 Oeste 18 Oeste 0 953.9 0.8 62
2019-08-11 07:00:00 15.6 5 Oeste 12 Sudoeste 0 953.7 0.1 63
2019-08-11 06:00:00 15.6 6 Sur 11 Oeste 0 953.1 -0.3 63
2019-08-11 05:00:00 17.3 11 Oeste 30 Noroeste 0 953.1 -0.5 60
2019-08-11 04:00:00 18.4 17 Oeste 23 Oeste 0 953.6 0 58
2019-08-11 03:00:00 19.5 17 Oeste 22 Oeste 0 953.4 -0.2 52
2019-08-11 02:00:00 20.4 13 Oeste 19 Oeste 0 953.6 -0.1 44
2019-08-11 01:00:00 21.3 12 Oeste 18 Oeste 0 953.6 0.6 38
2019-08-11 00:00:00 22.4 11 Noroeste 16 Noroeste 0 953.6 1.2 34
2019-08-10 23:00:00 22.8 9 Oeste 12 Noroeste 0 953.7 1.8 32
2019-08-10 22:00:00 25 11 Noroeste 27 Noroeste 0 953 0.9 32
2019-08-10 21:00:00 27.8 19 Norte 29 Noroeste 0 952.4 -0.2 32
2019-08-10 20:00:00 31.1 18 Noroeste 28 Noroeste 0 951.9 -1.4 32
2019-08-10 19:00:00 31.8 15 Noroeste 24 Noroeste 0 952.1 -2.1 32
2019-08-10 18:00:00 32.6 10 Oeste 26 Oeste 0 952.6 -2.4 32
2019-08-10 17:00:00 32.3 15 Oeste 30 Oeste 0 953.3 -2.3 34
2019-08-10 16:00:00 31.6 12 Oeste 35 Oeste 0 954.2 -1.6 36
2019-08-10 15:00:00 30.2 2 Sudoeste 24 Sudoeste 0 955 -1.2 39
2019-08-10 14:00:00 28.8 5 Noroeste 21 Sudoeste 0 955.6 -0.5 43
2019-08-10 13:00:00 26.9 3 Norte 13 Este 0 955.8 -0.3 46
2019-08-10 12:00:00 25.8 3 Sudeste 15 Noroeste 0 956.2 0.1 50
2019-08-10 11:00:00 23.8 7 Norte 19 Nordeste 0 956.1 0.3 57
2019-08-10 10:00:00 21.5 9 Noroeste 15 Noroeste 0 956.1 0.6 63
2019-08-10 09:00:00 19.7 9 Noroeste 13 Noroeste 0 956.1 0.6 69
2019-08-10 08:00:00 18.4 5 Oeste 13 Oeste 0 955.8 0.7 74
2019-08-10 07:00:00 17.6 9 Oeste 14 Oeste 0 955.5 0.3 75
2019-08-10 06:00:00 18.2 10 Oeste 13 Oeste 0 955.5 0.3 75
2019-08-10 05:00:00 18.6 9 Oeste 12 Oeste 0 955.1 -0.2 77
2019-08-10 04:00:00 19.2 9 Oeste 13 Oeste 0 955.2 -0.2 77
2019-08-10 03:00:00 19.8 11 Oeste 14 Oeste 0 955.2 -0.1 75
2019-08-10 02:00:00 20.5 6 Noroeste 17 Noroeste 0 955.3 0.5 71
2019-08-10 01:00:00 21.2 10 Noroeste 17 Noroeste 0 955.4 1.5 67
2019-08-10 00:00:00 22.4 12 Noroeste 21 Noroeste 0 955.3 2 67
2019-08-09 23:00:00 23.5 14 Noroeste 23 Noroeste 0 954.8 2.3 64
2019-08-09 22:00:00 24.7 21 Noroeste 30 Noroeste 0 953.9 1.7 61
2019-08-09 21:00:00 26.6 23 Noroeste 37 Noroeste 0 953.3 1 57
2019-08-09 20:00:00 28.9 28 Noroeste 41 Noroeste 0 952.5 0.1 52
2019-08-09 19:00:00 31.7 23 Noroeste 36 Noroeste 0 952.2 -1.3 42
2019-08-09 18:00:00 33.2 18 Noroeste 39 Oeste 0 952.3 -1.6 37
2019-08-09 17:00:00 33.5 17 Oeste 36 Oeste 0 952.4 -2 37
2019-08-09 16:00:00 32.8 17 Oeste 35 Oeste 0 953.5 -0.8 39
2019-08-09 15:00:00 31.4 15 Oeste 27 Oeste 0 953.9 -0.6 42
2019-08-09 14:00:00 30.2 13 Oeste 31 Oeste 0 954.4 0.2 45
2019-08-09 13:00:00 28.6 15 Oeste 31 Oeste 0 954.3 0.1 50
2019-08-09 12:00:00 27.6 17 Oeste 27 Oeste 0 954.5 0.8 52
2019-08-09 11:00:00 26.1 10 Sudoeste 19 Oeste 0 954.2 0.6 56
2019-08-09 10:00:00 24.8 4 Oeste 11 Oeste 0 954.2 0.9 61
2019-08-09 09:00:00 22.7 4 Sudoeste 6 Sudoeste 0 953.7 0.7 67
2019-08-09 08:00:00 19.5 4 Sudoeste 5 Sudoeste 0 953.6 0.7 78
2019-08-09 07:00:00 18.5 0 Calma 5 Oeste 0 953.3 0.6 77
2019-08-09 06:00:00 19.7 5 Oeste 6 Oeste 0 953 0.2 75
2019-08-09 05:00:00 21 5 Sudoeste 14 Oeste 0 952.9 0.4 73
2019-08-09 04:00:00 21.3 8 Oeste 14 Oeste 0 952.7 0.5 70
2019-08-09 03:00:00 22.5 13 Oeste 25 Noroeste 0 952.8 0.8 67
2019-08-09 02:00:00 24 17 Noroeste 22 Oeste 0 952.5 1.1 59
2019-08-09 01:00:00 24.9 15 Oeste 21 Noroeste 0 952.2 1.8 54
2019-08-09 00:00:00 26.1 15 Noroeste 20 Noroeste 0 952 2.4 48
2019-08-08 23:00:00 26 8 Oeste 16 Noroeste 0 951.4 2 44
2019-08-08 22:00:00 28.5 11 Noroeste 22 Oeste 0 950.4 0.7 38
2019-08-08 21:00:00 32.9 17 Oeste 29 Oeste 0 949.6 -0.1 29
2019-08-08 20:00:00 34.5 14 Oeste 35 Oeste 0 949.4 -0.8 28
2019-08-08 19:00:00 35.2 14 Oeste 31 Sudoeste 0 949.7 -1.2 27
2019-08-08 18:00:00 35.5 14 Oeste 28 Oeste 0 949.7 -1.7 29
2019-08-08 17:00:00 35.2 10 Sudoeste 28 Oeste 0 950.2 -1.8 30
2019-08-08 16:00:00 34.6 6 Oeste 30 Oeste 0 950.9 -1.5 32
2019-08-08 15:00:00 33.2 8 Oeste 23 Sur 0 951.4 -1.4 34
2019-08-08 14:00:00 31.7 9 Oeste 25 Sudoeste 0 952 -0.6 37
2019-08-08 13:00:00 30.1 0 Calma 18 Sur 0 952.4 -0.3 41
2019-08-08 12:00:00 27.4 5 Sudeste 13 Sudeste 0 952.8 0.3 47
2019-08-08 11:00:00 26.3 2 Sur 9 Sudeste 0 952.6 0.5 53
2019-08-08 10:00:00 24.6 3 Oeste 7 Oeste 0 952.7 0.7 59
2019-08-08 09:00:00 22.3 3 Oeste 4 Noroeste 0 952.5 0.6 61
2019-08-08 08:00:00 19.3 2 Noroeste 4 Oeste 0 952.1 0 67
2019-08-08 07:00:00 17.8 4 Noroeste 5 Sur 0 952 0 69
2019-08-08 06:00:00 18 0 Calma 8 Noroeste 0 951.9 -0.3 67
2019-08-08 05:00:00 19.4 5 Noroeste 8 Noroeste 0 952.1 -0.4 65
2019-08-08 04:00:00 19.3 5 Oeste 6 Oeste 0 952 -0.5 65
2019-08-08 03:00:00 19.5 0 Calma 6 Sudoeste 0 952.2 -0.1 63
2019-08-08 02:00:00 20.1 5 Oeste 7 Oeste 0 952.5 0.1 61
2019-08-08 01:00:00 20.4 0 Calma 5 Sur 0 952.5 0.6 60
2019-08-08 00:00:00 20.1 2 Sur 8 Noroeste 0 952.3 0.8 60
2019-08-07 23:00:00 21.4 8 Norte 9 Noroeste 0 952.4 1.2 57
2019-08-07 22:00:00 22.9 5 Noroeste 12 Noroeste 0 951.9 0.9 52
2019-08-07 21:00:00 25.5 12 Noroeste 17 Noroeste 0 951.5 -0.3 48
2019-08-07 20:00:00 25.5 14 Noroeste 17 Noroeste 0 951.2 -0.3 46
2019-08-07 19:00:00 26.4 7 Norte 20 Noroeste 0 951 -0.7 44
2019-08-07 18:00:00 26.9 15 Noroeste 24 Noroeste 0 951.8 0.4 43
2019-08-07 17:00:00 26.6 16 Noroeste 32 Noroeste 0 951.5 -0.3 43
2019-08-07 16:00:00 28 15 Noroeste 27 Noroeste 0 951.7 -0.5 41
2019-08-07 15:00:00 29.1 10 Noroeste 24 Noroeste 0 951.4 -0.5 40
2019-08-07 14:00:00 28.6 15 Noroeste 26 Noroeste 0 951.8 0.4 45
2019-08-07 13:00:00 28.2 12 Noroeste 23 Oeste 0 952.2 1.2 45
2019-08-07 12:00:00 26.3 10 Noroeste 17 Noroeste 0 951.9 1.2 48
2019-08-07 11:00:00 25.7 5 Oeste 13 Oeste 0 951.4 1.2 52
2019-08-07 10:00:00 23.7 6 Oeste 11 Noroeste 0 951 1.1 60
2019-08-07 09:00:00 21.9 5 Sudoeste 8 Sudoeste 0 950.7 0.9 66
2019-08-07 08:00:00 17.9 3 Sur 8 Sudoeste 0 950.2 0.4 73
2019-08-07 07:00:00 19 5 Sudoeste 6 Sudoeste 0 949.9 0 70
2019-08-07 06:00:00 19.9 0 Calma 15 Oeste 0 949.8 -0.1 67
2019-08-07 05:00:00 21.2 9 Oeste 16 Oeste 0 949.8 -0.4 63
2019-08-07 04:00:00 21.8 9 Oeste 14 Oeste 0 949.9 -0.2 61
2019-08-07 03:00:00 22.5 9 Oeste 18 Oeste 0 949.9 -0.2 55
2019-08-07 02:00:00 23.5 12 Oeste 18 Oeste 0 950.2 0.3 52
2019-08-07 01:00:00 24.6 15 Oeste 21 Oeste 0 950.1 1.2 48
2019-08-07 00:00:00 24.7 11 Oeste 15 Oeste 0 950.1 1.8 44
2019-08-06 23:00:00 25.8 9 Noroeste 13 Noroeste 0 949.9 2.2 41
2019-08-06 22:00:00 27.5 10 Noroeste 26 Noroeste 0 948.9 1.1 39
2019-08-06 21:00:00 30.2 19 Noroeste 35 Noroeste 0 948.3 0.1 36
2019-08-06 20:00:00 32.6 18 Noroeste 39 Sudoeste 0 947.7 -1.1 29
2019-08-06 19:00:00 36.2 17 Oeste 29 Oeste 0 947.8 -1.8 24
2019-08-06 18:00:00 36.4 9 Oeste 27 Sudoeste 0 948.2 -2.1 25
2019-08-06 17:00:00 36.1 9 Sudoeste 26 Sudoeste 0 948.8 -2.3 26
2019-08-06 16:00:00 34.9 9 Oeste 33 Sudoeste 0 949.6 -1.6 26
2019-08-06 15:00:00 34.3 6 Sudoeste 26 Oeste 0 950.3 -1.4 27
2019-08-06 14:00:00 33 12 Oeste 27 Oeste 0 951.1 -0.9 29
2019-08-06 13:00:00 32.2 10 Sudoeste 26 Oeste 0 951.2 -0.7 31
2019-08-06 12:00:00 30.6 9 Sudoeste 20 Sur 0 951.7 -0.1 35
2019-08-06 11:00:00 28.7 3 Sudeste 9 Sur 0 952 0.9 39
2019-08-06 10:00:00 25.6 5 Norte 9 Norte 0 951.9 0.9 43
2019-08-06 09:00:00 23 3 Oeste 8 Sur 0 951.8 0.7 48
2019-08-06 08:00:00 18.6 7 Sur 9 Sur 0 951.1 -0.2 52
2019-08-06 07:00:00 17.7 5 Sur 9 Sudoeste 0 951 -0.3 52
2019-08-06 06:00:00 18.7 4 Sudoeste 8 Sudoeste 0 951.1 -0.3 50
2019-08-06 05:00:00 19 3 Sur 9 Oeste 0 951.3 -0.1 48
2019-08-06 04:00:00 20.8 6 Oeste 13 Oeste 0 951.3 0.1 44
2019-08-06 03:00:00 23.2 12 Oeste 17 Oeste 0 951.4 0.3 40
2019-08-06 02:00:00 24 13 Oeste 18 Oeste 0 951.4 0.6 36
2019-08-06 01:00:00 24.9 13 Oeste 18 Oeste 0 951.2 1.1 34
2019-08-06 00:00:00 24.9 10 Oeste 13 Oeste 0 951.1 1.9 33
2019-08-05 23:00:00 26.7 12 Oeste 15 Noroeste 0 950.8 2.1 32
2019-08-05 22:00:00 28.4 13 Noroeste 30 Noroeste 0 950.1 1.1 32
2019-08-05 21:00:00 31.3 24 Noroeste 33 Noroeste 0 949.2 -0.1 30
2019-08-05 20:00:00 35.5 10 Oeste 27 Oeste 0 948.7 -1 25
2019-08-05 19:00:00 35.7 14 Oeste 32 Oeste 0 949 -1.2 26
2019-08-05 18:00:00 36 8 Oeste 30 Sudoeste 0 949.3 -1.3 25
2019-08-05 17:00:00 35.6 13 Sudoeste 31 Oeste 0 949.7 -1.6 26
2019-08-05 16:00:00 35.4 13 Oeste 27 Oeste 0 950.2 -1.9 27
2019-08-05 15:00:00 33.8 7 Sur 18 Oeste 0 950.6 -2.1 30
2019-08-05 14:00:00 33.3 8 Oeste 16 Oeste 0 951.3 -1.4 32
2019-08-05 13:00:00 31.7 5 Noroeste 16 Oeste 0 952.1 -0.3 35
2019-08-05 12:00:00 29.8 5 Oeste 10 Oeste 0 952.7 0.1 38
2019-08-05 11:00:00 28.2 0 Calma 7 Sudoeste 0 952.7 0.5 40
2019-08-05 10:00:00 25.7 0 Calma 8 Noroeste 0 952.4 0.4 47
2019-08-05 09:00:00 22 7 Oeste 9 Oeste 0 952.6 0.6 56
2019-08-05 08:00:00 18.4 4 Oeste 9 Oeste 0 952.2 0.1 64
2019-08-05 07:00:00 17.9 4 Oeste 6 Oeste 0 952 -0.2 63
2019-08-05 06:00:00 19 5 Oeste 9 Oeste 0 952 -0.3 60
2019-08-05 05:00:00 20.4 7 Oeste 12 Oeste 0 952.1 -0.4 58
2019-08-05 04:00:00 21.4 8 Oeste 17 Oeste 0 952.2 -0.2 55
2019-08-05 03:00:00 22.6 14 Oeste 18 Oeste 0 952.3 0.2 51
2019-08-05 02:00:00 23.1 13 Oeste 17 Oeste 0 952.5 0.7 47
2019-08-05 01:00:00 23.5 9 Noroeste 18 Noroeste 0 952.4 1.4 39
2019-08-05 00:00:00 23.6 0 Calma 8 Noroeste 0 952.1 1.7 37
2019-08-04 23:00:00 26 3 Oeste 12 Norte 0 951.8 1.7 34
2019-08-04 22:00:00 28 11 Norte 27 Noroeste 0 951 1.1 32
2019-08-04 21:00:00 31 19 Noroeste 28 Norte 0 950.4 0.5 32
2019-08-04 20:00:00 33.8 17 Noroeste 24 Oeste 0 950.1 -0.2 27
2019-08-04 19:00:00 35 10 Noroeste 25 Sudoeste 0 949.9 -1 26
2019-08-04 18:00:00 35.4 11 Oeste 27 Oeste 0 949.9 -1.5 27
2019-08-04 17:00:00 35 11 Oeste 28 Noroeste 0 950.3 -1.4 27
2019-08-04 16:00:00 34.9 12 Oeste 25 Oeste 0 950.9 -1.3 29
2019-08-04 15:00:00 34.1 11 Sudoeste 25 Sudoeste 0 951.4 -1.1 30
2019-08-04 14:00:00 33.2 13 Oeste 24 Oeste 0 951.7 -0.8 32
2019-08-04 13:00:00 31.7 10 Oeste 21 Sudoeste 0 952.2 -0.3 36
2019-08-04 12:00:00 30.6 4 Oeste 13 Oeste 0 952.5 0.1 40
2019-08-04 11:00:00 28.1 4 Oeste 9 Noroeste 0 952.5 0.4 45
2019-08-04 10:00:00 26.1 3 Norte 6 Norte 0 952.5 0.6 49
2019-08-04 09:00:00 23.4 0 Calma 4 Sudoeste 0 952.4 1 51
2019-08-04 08:00:00 19 3 Sudoeste 8 Sudoeste 0 952.1 0.9 58
2019-08-04 07:00:00 19.1 4 Sudoeste 10 Sudoeste 0 951.9 0.6 54
2019-08-04 06:00:00 19.8 7 Sudoeste 9 Sudoeste 0 951.4 0.2 49
2019-08-04 05:00:00 20.2 4 Sudoeste 10 Oeste 0 951.2 0 43
2019-08-04 04:00:00 22.3 9 Oeste 14 Oeste 0 951.3 0.1 40
2019-08-04 03:00:00 23.3 11 Oeste 15 Oeste 0 951.2 0.2 37
2019-08-04 02:00:00 23.1 8 Sudoeste 12 Sudoeste 0 951.2 0.3 36
2019-08-04 01:00:00 24.4 9 Sudoeste 12 Oeste 0 951.2 1.1 34
2019-08-04 00:00:00 25 6 Oeste 15 Oeste 0 951 1.7 34
2019-08-03 23:00:00 27 13 Oeste 16 Oeste 0 950.9 2 33
2019-08-03 22:00:00 28.4 12 Noroeste 24 Noroeste 0 950.1 1 33
2019-08-03 21:00:00 31.4 15 Noroeste 24 Noroeste 0 949.3 -0.2 30
2019-08-03 20:00:00 34.4 13 Oeste 38 Sudoeste 0 948.9 -0.9 24
2019-08-03 19:00:00 35 20 Sudoeste 31 Sudoeste 0 949.1 -1.2 24
2019-08-03 18:00:00 35.3 13 Sudoeste 31 Oeste 0 949.5 -1.1 26
2019-08-03 17:00:00 35.9 14 Oeste 28 Sudoeste 0 949.8 -1.2 27
2019-08-03 16:00:00 35.6 15 Oeste 32 Oeste 0 950.3 -1.2 27
2019-08-03 15:00:00 35 8 Oeste 28 Oeste 0 950.6 -1.1 28
2019-08-03 14:00:00 34.4 10 Sudoeste 28 Sudoeste 0 951 -0.8 29
2019-08-03 13:00:00 32.9 4 Sur 16 Sudoeste 0 951.5 -0.2 33
2019-08-03 12:00:00 31.9 3 Sur 12 Sudeste 0 951.7 0.1 35
2019-08-03 11:00:00 29.1 4 Sudeste 13 Sudeste 0 951.8 0.4 39
2019-08-03 10:00:00 26.6 0 Calma 6 Este 0 951.7 0.6 44
2019-08-03 09:00:00 23.4 3 Este 6 Este 0 951.6 0.7 46
2019-08-03 08:00:00 18.3 6 Sur 9 Sudeste 0 951.4 0.6 52
2019-08-03 07:00:00 19 6 Sudoeste 8 Sudoeste 0 951.1 0.3 47
2019-08-03 06:00:00 19.7 4 Oeste 9 Oeste 0 950.9 0.1 40
2019-08-03 05:00:00 20.7 9 Sudoeste 15 Oeste 0 950.8 -0.1 34
2019-08-03 04:00:00 21.8 11 Oeste 14 Sudoeste 0 950.8 -0.4 34
2019-08-03 03:00:00 20.6 7 Sudoeste 9 Sur 0 950.8 -0.2 34
2019-08-03 02:00:00 22.1 4 Sur 8 Sudoeste 0 950.9 -0.1 32
2019-08-03 01:00:00 23.7 6 Sudoeste 9 Sudoeste 0 951.2 0.7 31
2019-08-03 00:00:00 23.9 3 Sudoeste 10 Noroeste 0 951 1 31
2019-08-02 23:00:00 25.1 7 Noroeste 13 Noroeste 0 951 1.4 29
2019-08-02 22:00:00 27.1 10 Noroeste 21 Noroeste 0 950.5 1.1 28
2019-08-02 21:00:00 31.1 18 Noroeste 28 Norte 0 950 0.1 27
2019-08-02 20:00:00 33.4 19 Norte 29 Norte 0 949.6 -0.8 27
2019-08-02 19:00:00 34.5 23 Noroeste 39 Noroeste 0 949.4 -1.5 26
2019-08-02 18:00:00 35.5 11 Noroeste 28 Oeste 0 949.9 -1.4 25
2019-08-02 17:00:00 36 6 Oeste 21 Sudoeste 0 950.4 -1.4 25
2019-08-02 16:00:00 34.9 8 Oeste 23 Oeste 0 950.9 -1.2 26
2019-08-02 15:00:00 34 5 Norte 23 Sudoeste 0 951.3 -1.1 27
2019-08-02 14:00:00 31.9 7 Nordeste 19 Oeste 0 951.8 -0.5 29
2019-08-02 13:00:00 31.6 4 Norte 18 Oeste 0 952.1 -0.2 30
2019-08-02 12:00:00 30.2 3 Norte 10 Norte 0 952.4 0.4 32
2019-08-02 11:00:00 28.3 0 Calma 7 Este 0 952.3 0.5 35
2019-08-02 10:00:00 25.6 2 Noroeste 7 Sudoeste 0 952.3 0.7 38
2019-08-02 09:00:00 22.4 4 Noroeste 6 Oeste 0 952 0.9 40
2019-08-02 08:00:00 18.7 5 Oeste 7 Oeste 0 951.8 0.5 43
2019-08-02 07:00:00 17.5 4 Sudoeste 6 Sudoeste 0 951.6 0.2 44
2019-08-02 06:00:00 17.7 0 Calma 9 Oeste 0 951.1 -0.2 43
2019-08-02 05:00:00 20.1 7 Oeste 17 Oeste 0 951.3 -0.2 41
2019-08-02 04:00:00 20.9 14 Oeste 20 Oeste 0 951.4 -0.1 40
2019-08-02 03:00:00 21.7 14 Oeste 20 Oeste 0 951.3 0.1 39
2019-08-02 02:00:00 22.2 16 Oeste 19 Oeste 0 951.5 0.8 38
2019-08-02 01:00:00 23.2 13 Oeste 19 Oeste 0 951.5 1.5 35
2019-08-02 00:00:00 23.5 4 Oeste 8 Oeste 0 951.2 2 32
2019-08-01 23:00:00 24.6 5 Noroeste 12 Norte 0 950.7 2.1 30
2019-08-01 22:00:00 27.2 10 Norte 28 Noroeste 0 950 1.3 29
2019-08-01 21:00:00 30.2 22 Noroeste 32 Noroeste 0 949.2 0.4 28
2019-08-01 20:00:00 33 19 Noroeste 27 Oeste 0 948.6 -0.5 26
2019-08-01 19:00:00 34.1 16 Noroeste 30 Oeste 0 948.7 -0.7 27
2019-08-01 18:00:00 34.8 4 Oeste 29 Oeste 0 948.8 -1.2 27
2019-08-01 17:00:00 34.6 15 Noroeste 30 Noroeste 0 949.1 -1.2 27
2019-08-01 16:00:00 34.1 8 Oeste 28 Oeste 0 949.4 -1.3 28
2019-08-01 15:00:00 33.2 15 Oeste 27 Oeste 0 950 -0.7 28
2019-08-01 14:00:00 32.4 8 Sudoeste 18 Sudoeste 0 950.3 -0.3 29
2019-08-01 13:00:00 31.4 8 Sudoeste 21 Oeste 0 950.7 0.4 30
2019-08-01 12:00:00 30.3 9 Oeste 17 Oeste 0 950.7 0.8 32
2019-08-01 11:00:00 28.8 6 Oeste 14 Oeste 0 950.6 0.8 34
2019-08-01 10:00:00 26.3 5 Sudoeste 12 Sudoeste 0 950.3 0.7 41
2019-08-01 09:00:00 22.6 4 Sudeste 9 Sudeste 0 949.9 0.6 46
2019-08-01 08:00:00 19.3 6 Sudeste 15 Sudoeste 0 949.8 0.5 48
2019-08-01 07:00:00 20 10 Sudoeste 17 Sudoeste 0 949.6 0.5 46
2019-08-01 06:00:00 20.6 11 Sudoeste 17 Sudoeste 0 949.3 0.2 44
2019-08-01 05:00:00 20.8 7 Sudoeste 14 Sudoeste 0 949.3 0.3 41
2019-08-01 04:00:00 21.5 5 Sudoeste 11 Sudoeste 0 949.1 0.2 38
2019-08-01 03:00:00 22.6 6 Sudoeste 14 Sudoeste 0 949.1 0.3 36
2019-08-01 02:00:00 23.8 11 Sudoeste 19 Oeste 0 949 0.5 32
2019-08-01 01:00:00 24.1 9 Oeste 13 Oeste 0 948.9 1.1 31
2019-08-01 00:00:00 25.2 5 Sudoeste 10 Oeste 0 948.8 1.6 31
2019-07-31 23:00:00 26.1 4 Sudoeste 11 Noroeste 0 948.5 1.6 29
2019-07-31 22:00:00 28.3 9 Noroeste 19 Noroeste 0 947.8 0.8 27
2019-07-31 21:00:00 31.6 16 Noroeste 21 Noroeste 0 947.2 0 27
2019-07-31 20:00:00 33.9 9 Sudoeste 18 Sudeste 0 946.9 -0.8 30
2019-07-31 19:00:00 34.8 15 Sur 24 Sudoeste 0 947 -1.4 29
2019-07-31 18:00:00 35.6 12 Sudoeste 26 Oeste 0 947.2 -1.9 27
2019-07-31 17:00:00 35.1 8 Noroeste 23 Sudoeste 0 947.7 -2.2 27
2019-07-31 16:00:00 34.7 8 Noroeste 18 Norte 0 948.4 -1.8 27
2019-07-31 15:00:00 33.2 6 Este 17 Sudeste 0 949.1 -1.3 27
2019-07-31 14:00:00 32.8 8 Sudoeste 18 Sudoeste 0 949.9 -0.6 26
2019-07-31 13:00:00 32.3 4 Oeste 20 Oeste 0 950.2 -0.2 26
2019-07-31 12:00:00 29.8 6 Oeste 14 Oeste 0 950.4 0.2 28
2019-07-31 11:00:00 27 6 Sur 12 Sudeste 0 950.5 0.8 32
2019-07-31 10:00:00 24.9 3 Nordeste 8 Nordeste 0 950.4 0.7 33
2019-07-31 09:00:00 22.1 0 Calma 7 Noroeste 0 950.2 0.6 34
2019-07-31 08:00:00 17.7 5 Noroeste 8 Oeste 0 949.7 0.1 37
2019-07-31 07:00:00 17.3 6 Oeste 7 Oeste 0 949.7 0 37
2019-07-31 06:00:00 16.9 5 Sudoeste 10 Oeste 0 949.6 -0.5 37
2019-07-31 05:00:00 18.2 6 Oeste 8 Oeste 0 949.6 -0.8 34
2019-07-31 04:00:00 18.6 8 Oeste 9 Oeste 0 949.7 -0.9 33
2019-07-31 03:00:00 19.4 6 Oeste 10 Oeste 0 950.1 -0.4 31
2019-07-31 02:00:00 20.2 5 Oeste 8 Oeste 0 950.4 0.2 28
2019-07-31 01:00:00 20.9 6 Oeste 7 Oeste 0 950.6 0.8 26
2019-07-31 00:00:00 22.2 6 Noroeste 10 Noroeste 0 950.5 0.9 24
2019-07-30 23:00:00 22.6 7 Noroeste 11 Noroeste 0 950.2 0.9 23
2019-07-30 22:00:00 23.8 10 Noroeste 19 Noroeste 0 949.8 0.3 22
2019-07-30 21:00:00 28.7 15 Noroeste 23 Noroeste 0 949.6 -0.4 21
2019-07-30 20:00:00 30.6 15 Noroeste 28 Norte 0 949.3 -1.2 21
2019-07-30 19:00:00 31.6 12 Oeste 23 Oeste 0 949.5 -1.5 21
2019-07-30 18:00:00 31.6 12 Oeste 22 Noroeste 0 950 -1.5 23
2019-07-30 17:00:00 31.6 5 Norte 21 Noroeste 0 950.5 -1.6 26
2019-07-30 16:00:00 30.4 10 Oeste 22 Noroeste 0 951 -1.3 27
2019-07-30 15:00:00 29.8 9 Oeste 19 Oeste 0 951.5 -1 29
2019-07-30 14:00:00 28.2 4 Oeste 17 Noroeste 0 952.1 -0.6 30
2019-07-30 13:00:00 26.8 8 Norte 15 Noroeste 0 952.3 -0.5 32
2019-07-30 12:00:00 24.3 6 Norte 14 Noroeste 0 952.5 0 39
2019-07-30 11:00:00 22 7 Noroeste 16 Noroeste 0 952.7 0.7 44
2019-07-30 10:00:00 19.5 9 Noroeste 15 Noroeste 0 952.8 1 50
2019-07-30 09:00:00 17.5 10 Noroeste 14 Noroeste 0 952.5 0.9 54
2019-07-30 08:00:00 15.6 9 Oeste 14 Oeste 0 952 0.3 58
2019-07-30 07:00:00 15.1 8 Oeste 15 Oeste 0 951.8 0.6 56
2019-07-30 06:00:00 15.4 11 Oeste 15 Oeste 0 951.6 0.4 55
2019-07-30 05:00:00 16.9 9 Oeste 26 Oeste 0 951.7 0.5 50
2019-07-30 04:00:00 18.2 20 Oeste 29 Oeste 0 951.2 0 46
2019-07-30 03:00:00 19.5 16 Oeste 22 Oeste 0 951.2 0.1 42
2019-07-30 02:00:00 20.5 13 Noroeste 22 Oeste 0 951.2 0.5 39
2019-07-30 01:00:00 21.8 16 Oeste 25 Oeste 0 951.2 1.4 36
2019-07-30 00:00:00 23.1 15 Oeste 23 Oeste 0 951.1 1.7 35
2019-07-29 23:00:00 24.5 16 Noroeste 22 Noroeste 0 950.7 1.7 34
2019-07-29 22:00:00 25.3 14 Noroeste 29 Noroeste 0 949.8 1 31
2019-07-29 21:00:00 27.8 23 Noroeste 32 Noroeste 0 949.4 0.4 30
2019-07-29 20:00:00 29.7 22 Noroeste 32 Oeste 0 949 0 32
2019-07-29 19:00:00 30.8 21 Noroeste 33 Noroeste 0 948.8 -0.6 31
2019-07-29 18:00:00 31.7 23 Noroeste 40 Noroeste 0 949 -0.8 28
2019-07-29 17:00:00 32.5 16 Noroeste 33 Noroeste 0 949 -1 27
2019-07-29 16:00:00 31.6 13 Oeste 30 Oeste 0 949.4 -1.1 27
2019-07-29 15:00:00 30.9 15 Noroeste 32 Oeste 0 949.8 -0.7 27
2019-07-29 14:00:00 29.7 13 Noroeste 24 Noroeste 0 950 -0.3 25
2019-07-29 13:00:00 28.7 14 Oeste 23 Oeste 0 950.5 0.4 24
2019-07-29 12:00:00 27.1 13 Oeste 21 Oeste 0 950.5 0.7 26
2019-07-29 11:00:00 25.4 9 Oeste 18 Oeste 0 950.3 1.1 29
2019-07-29 10:00:00 23.5 9 Oeste 15 Oeste 0 950.1 1.2 33
2019-07-29 09:00:00 21.7 8 Oeste 12 Oeste 0 949.8 1.2 39
2019-07-29 08:00:00 18.4 4 Sudoeste 10 Sudoeste 0 949.2 0.6 45
2019-07-29 07:00:00 17.8 4 Oeste 17 Oeste 0 948.9 0.5 47
2019-07-29 06:00:00 18.6 11 Oeste 17 Oeste 0 948.6 0.2 50
2019-07-29 05:00:00 19.3 12 Oeste 18 Oeste 0 948.6 0.4 52
2019-07-29 04:00:00 20.4 12 Oeste 21 Oeste 0 948.4 0.1 48
2019-07-29 03:00:00 21.5 18 Oeste 23 Oeste 0 948.4 0.3 48
2019-07-29 02:00:00 21.5 6 Sudoeste 10 Sudoeste 0 948.2 0.2 45
2019-07-29 01:00:00 21 6 Sudoeste 8 Sudoeste 0 948.3 0.9 44
2019-07-29 00:00:00 22.5 4 Noroeste 8 Noroeste 0 948.1 1.1 43
2019-07-28 23:00:00 23.1 7 Noroeste 13 Noroeste 0 948 1.4 41
2019-07-28 22:00:00 25.7 13 Noroeste 20 Noroeste 0 947.4 0.9 38
2019-07-28 21:00:00 28.6 10 Noroeste 19 Noroeste 0 947 0.2 34
2019-07-28 20:00:00 29.7 9 Noroeste 20 Noroeste 0 946.6 -0.4 33
2019-07-28 19:00:00 30.4 6 Noroeste 23 Noroeste 0 946.5 -1.1 33
2019-07-28 18:00:00 30 6 Noroeste 24 Noroeste 0 946.8 -1.2 34
2019-07-28 17:00:00 30.1 9 Oeste 21 Noroeste 0 947 -1.3 35
2019-07-28 16:00:00 28.9 4 Norte 17 Nordeste 0 947.6 -1.1 37
2019-07-28 15:00:00 28.3 8 Norte 21 Norte 0 948 -0.9 39
2019-07-28 14:00:00 25.8 5 Oeste 15 Este 0 948.3 -0.8 43
2019-07-28 13:00:00 27.5 3 Oeste 16 Nordeste 0 948.7 -0.5 42
2019-07-28 12:00:00 25.2 6 Nordeste 15 Sudeste 0 948.9 -0.1 46
2019-07-28 11:00:00 23.6 4 Nordeste 9 Norte 0 949.1 0.2 51
2019-07-28 10:00:00 21.9 3 Nordeste 8 Nordeste 0 949.2 0.7 57
2019-07-28 09:00:00 19.8 3 Oeste 6 Sudoeste 0 949 0.8 65
2019-07-28 08:00:00 16.1 3 Sudoeste 8 Sudoeste 0 948.9 0.8 80
2019-07-28 07:00:00 14.8 5 Sudoeste 8 Sudoeste 0 948.5 0.1 82
2019-07-28 06:00:00 15.4 3 Oeste 12 Oeste 0 948.2 -0.5 82
2019-07-28 05:00:00 16 8 Oeste 12 Oeste 0 948.1 -0.6 82
2019-07-28 04:00:00 17.1 10 Oeste 12 Oeste 0 948.4 -0.3 82
2019-07-28 03:00:00 17.8 9 Oeste 14 Oeste 0 948.7 -0.3 80
2019-07-28 02:00:00 19.1 10 Oeste 15 Sudoeste 0 948.7 0.1 80
2019-07-28 01:00:00 19.5 10 Sudoeste 14 Sudoeste 0 948.7 0.6 80
2019-07-28 00:00:00 19.5 5 Sudoeste 20 Oeste 0 949 0.9 80
2019-07-27 23:00:00 19.6 10 Oeste 18 Oeste 0 948.6 1.1 80
2019-07-26 12:00:00 24 18 Oeste 28 Oeste 0 951.5 0.4 46
2019-07-26 11:00:00 23 15 Oeste 23 Oeste 0 951.4 0.7 59
2019-07-26 10:00:00 21.4 10 Oeste 22 Oeste 0 951.2 0.5 68
2019-07-26 09:00:00 20.7 16 Oeste 24 Oeste 0 951.1 0.2 74
2019-07-26 08:00:00 19.5 11 Oeste 16 Oeste 0 950.7 -0.1 79
2019-07-26 07:00:00 19.1 13 Oeste 18 Oeste 0 950.7 -0.3 79
2019-07-26 06:00:00 19.9 12 Oeste 18 Oeste 0 950.9 0 75
2019-07-26 05:00:00 21.3 14 Noroeste 20 Noroeste 0 950.8 -0.1 72
2019-07-26 04:00:00 22.3 14 Oeste 26 Oeste 0 951 0.2 69
2019-07-26 03:00:00 23 18 Noroeste 30 Oeste 0 950.9 0.1 65
2019-07-26 02:00:00 24.5 21 Noroeste 31 Oeste 0 950.9 0.5 52
2019-07-26 01:00:00 25.8 14 Oeste 18 Noroeste 0 950.8 0.8 45
2019-07-26 00:00:00 26 12 Oeste 19 Noroeste 0 950.8 1.1 44
2019-07-25 23:00:00 26.8 11 Noroeste 18 Noroeste 0 950.4 1.3 44
2019-07-25 22:00:00 28.5 17 Noroeste 28 Noroeste 0 950 1 42
2019-07-25 21:00:00 30.4 19 Noroeste 33 Noroeste 0 949.7 0.4 41
2019-07-25 20:00:00 32.9 22 Noroeste 31 Noroeste 0 949.1 -0.5 37
2019-07-25 19:00:00 33.2 12 Noroeste 32 Sudoeste 0 949 -1 35
2019-07-25 18:00:00 35.4 13 Sudoeste 30 Oeste 0 949.3 -1.2 32
2019-07-25 17:00:00 35.2 5 Sudoeste 32 Sudoeste 0 949.6 -1.4 30
2019-07-25 16:00:00 34.8 9 Sur 28 Sudoeste 0 950 -1.3 32
2019-07-25 15:00:00 34.7 14 Sudoeste 32 Sudoeste 0 950.5 -1.2 34
2019-07-25 14:00:00 33.7 14 Sudoeste 28 Sudoeste 0 951 -0.8 35
2019-07-25 13:00:00 32.7 10 Sur 28 Sudoeste 0 951.3 -0.6 37
2019-07-25 12:00:00 31.6 17 Sudoeste 30 Sudoeste 0 951.7 0.1 38
2019-07-25 11:00:00 29.3 7 Sudeste 14 Sudeste 0 951.8 0.6 41
2019-07-25 10:00:00 28.5 3 Oeste 9 Oeste 0 951.9 1 44
2019-07-25 09:00:00 26 0 Calma 5 Sudoeste 0 951.6 0.7 49
2019-07-25 08:00:00 21.9 4 Sudoeste 8 Sudoeste 0 951.2 0 55
2019-07-25 07:00:00 20.8 5 Sudoeste 8 Sur 0 950.9 -0.4 57
2019-07-25 06:00:00 21.1 5 Sur 12 Sudoeste 0 950.9 -0.7 57
2019-07-25 05:00:00 23.2 6 Sudoeste 13 Oeste 0 951.2 -0.2 53
2019-07-25 04:00:00 24.2 9 Sudoeste 14 Oeste 0 951.3 0.3 52
2019-07-25 03:00:00 25.5 8 Sudoeste 26 Sudoeste 0 951.6 1 49
2019-07-25 02:00:00 26.6 10 Sudoeste 19 Sudoeste 0 951.4 1.2 47
2019-07-25 01:00:00 27.4 10 Sudoeste 20 Oeste 0 951 1.4 44
2019-07-25 00:00:00 28.6 15 Oeste 24 Oeste 0 950.6 1.4 41
2019-07-24 23:00:00 29.2 10 Sudoeste 15 Sudoeste 0 950.2 1.2 39
2019-07-24 22:00:00 30.8 8 Sudoeste 21 Sur 0 949.6 0.6 36
2019-07-24 21:00:00 33.6 11 Sudoeste 21 Sudoeste 0 949.2 -0.1 34
2019-07-24 20:00:00 35.3 11 Sudoeste 26 Sur 0 949 -0.7 33
2019-07-24 19:00:00 35.9 15 Sudoeste 28 Sudoeste 0 949 -1 33
2019-07-24 18:00:00 36.4 19 Sur 31 Sur 0 949.3 -1.4 33
2019-07-24 17:00:00 37.1 14 Sur 29 Sur 0 949.7 -1.5 34
2019-07-24 16:00:00 36.5 4 Sudeste 25 Sur 0 950 -1.7 35
2019-07-24 15:00:00 36.3 7 Sudoeste 23 Sudoeste 0 950.7 -1.2 37
2019-07-24 14:00:00 34.8 5 Sur 27 Sudeste 0 951.2 -0.8 38
2019-07-24 13:00:00 33.2 10 Este 17 Sudeste 0 951.7 -0.3 39
2019-07-24 12:00:00 32.7 4 Norte 15 Oeste 0 951.9 -0.1 41
2019-07-24 11:00:00 31.9 0 Calma 10 Este 0 952 0.5 44
2019-07-24 10:00:00 29.5 0 Calma 9 Sudoeste 0 952 0.6 49
2019-07-24 09:00:00 25.2 5 Sudeste 7 Sudeste 0 952 0.6 54
2019-07-24 08:00:00 22.5 0 Calma 7 Sudoeste 0 951.5 -0.1 58
2019-07-24 07:00:00 22.2 4 Sudoeste 9 Sudoeste 0 951.4 -0.4 58
2019-07-24 06:00:00 22.2 6 Oeste 10 Oeste 0 951.4 -0.7 55
2019-07-24 05:00:00 23 5 Oeste 8 Oeste 0 951.6 -0.9 52
2019-07-24 04:00:00 23.9 0 Calma 9 Oeste 0 951.8 -0.7 50
2019-07-24 03:00:00 24.4 8 Oeste 22 Norte 0 952.1 -0.2 49
2019-07-24 02:00:00 26 7 Sudoeste 10 Sudoeste 0 952.5 0.6 46
2019-07-24 01:00:00 27 7 Sudoeste 11 Sudoeste 0 952.5 1.4 45
2019-07-24 00:00:00 27.4 2 Oeste 11 Noroeste 0 952.3 1.9 44
2019-07-23 23:00:00 28.9 8 Noroeste 16 Noroeste 0 951.9 1.8 41
2019-07-23 22:00:00 31.6 9 Sudoeste 31 Oeste 0 951.1 1 36
2019-07-23 21:00:00 33.5 16 Oeste 28 Sudoeste 0 950.4 0 36
2019-07-23 20:00:00 35.5 14 Sudoeste 32 Sudoeste 0 950.1 -0.7 33
2019-07-23 19:00:00 36.1 16 Sudoeste 31 Sudoeste 0 950.1 -0.9 34
2019-07-23 18:00:00 36.6 18 Sur 34 Sudoeste 0 950.4 -1.1 33
2019-07-23 17:00:00 36.9 19 Sur 36 Sur 0 950.8 -1 33
2019-07-23 16:00:00 36.5 14 Sudeste 30 Sur 0 951 -1.3 34
2019-07-23 15:00:00 36.6 11 Sur 26 Sur 0 951.5 -1 35
2019-07-23 14:00:00 35.8 11 Sudoeste 42 Sudoeste 0 951.8 -1.1 37
2019-07-23 13:00:00 34.4 6 Este 22 Sudeste 0 952.3 -0.9 38
2019-07-23 12:00:00 32.9 9 Sudeste 20 Este 0 952.5 -0.9 42
2019-07-23 11:00:00 30.8 8 Sudeste 15 Sudeste 0 952.9 -0.4 45
2019-07-23 10:00:00 30.4 4 Sudeste 11 Sur 0 953.2 0.9 48
2019-07-23 09:00:00 27.1 4 Sur 12 Sur 0 953.4 0.6 54
2019-07-23 08:00:00 25.7 10 Sur 16 Sur 0 953.3 0.8 58
2019-07-23 07:00:00 24 9 Sudeste 12 Sudeste 0 952.3 -0.1 59
2019-07-23 06:00:00 24 8 Sudeste 13 Sudeste 0 952.8 0 58
2019-07-23 05:00:00 25 9 Este 14 Este 0 952.5 -0.5 56
2019-07-23 04:00:00 25.7 5 Sur 21 Sudoeste 0 952.4 -0.8 54
2019-07-23 03:00:00 27.8 18 Sudoeste 31 Sur 0 952.8 0.1 48
2019-07-23 02:00:00 28.3 13 Sur 23 Sur 0 953 0.8 45
2019-07-23 01:00:00 28.9 13 Sur 21 Sur 0 953.2 1.6 40
2019-07-23 00:00:00 30.4 8 Sudoeste 21 Sudoeste 0 952.7 1.2 39
2019-07-22 23:00:00 31.8 11 Sudoeste 21 Sudoeste 0 952.2 1.1 39
2019-07-22 22:00:00 32.6 10 Sudoeste 25 Sudoeste 0 951.6 0 38
2019-07-22 21:00:00 34.5 15 Sudoeste 24 Sur 0 951.5 -0.6 35
2019-07-22 20:00:00 36.7 12 Sur 21 Sudoeste 0 951.1 -1.5 33
2019-07-22 19:00:00 37.6 11 Sudeste 24 Sudeste 0 951.6 -1.6 32
2019-07-22 18:00:00 36.3 15 Sur 27 Sur 0 952.1 -1.6 34
2019-07-22 17:00:00 38.1 11 Sur 28 Sudeste 0 952.6 -1.6 34
2019-07-22 16:00:00 37.9 4 Sudeste 26 Sudeste 0 953.2 -1.5 36
2019-07-22 15:00:00 36 11 Este 28 Sudeste 0 953.7 -1.3 37
2019-07-22 14:00:00 36.2 3 Sudeste 20 Sudeste 0 954.2 -0.8 38
2019-07-22 13:00:00 32.9 10 Sudeste 32 Sudeste 0 954.7 -- 41
2019-07-22 12:00:00 31.9 14 Sudeste 29 Sudeste 0 955 -- 44
2019-07-22 11:00:00 29.8 7 Este -- -- -- 955 0.2 47
2019-07-22 10:00:00 -- -- -- -- -- -- -- -- --
2019-07-22 09:00:00 -- -- -- -- -- -- -- -- --
2019-07-22 08:00:00 21.8 5 Sudeste 9 Sudeste 0 954.8 0.7 63
2019-07-22 07:00:00 21.9 8 Sudeste 12 Sudeste 0 954.7 0.7 62
2019-07-22 06:00:00 23.2 7 Sur 19 Sudoeste 0 954.4 0.2 52
2019-07-22 05:00:00 25.2 12 Sudoeste 21 Sudoeste 0 954.1 -0.4 38
2019-07-22 04:00:00 25.4 7 Sudoeste 12 Sudoeste 0 954 -0.1 36
2019-07-22 03:00:00 26.6 8 Sudoeste 14 Sudoeste 0 954.2 0.3 36
2019-07-22 02:00:00 27.3 6 Sudoeste 11 Oeste 0 954.5 0.9 36
2019-07-22 01:00:00 28.3 10 Oeste 15 Noroeste 0 954.1 1.3 36
2019-07-22 00:00:00 29.8 12 Oeste 17 Oeste 0 953.9 1.7 36
2019-07-21 23:00:00 30.6 10 Noroeste 15 Noroeste 0 953.6 1.9 36
2019-07-21 22:00:00 32 10 Noroeste 22 Noroeste 0 952.8 1 33
2019-07-21 21:00:00 34.8 18 Noroeste 25 Noroeste 0 952.2 0.1 31
2019-07-21 20:00:00 36.6 5 Este 17 Oeste 0 951.7 -0.9 30
2019-07-21 19:00:00 38.3 10 Oeste 19 Oeste 0 951.8 -1.5 30
2019-07-21 18:00:00 38.4 6 Oeste 17 Noroeste 0 952.1 -1.9 30
2019-07-21 17:00:00 37.7 5 Nordeste 21 Este 0 952.6 -1.5 30
2019-07-21 16:00:00 37.7 4 Noroeste 21 Oeste 0 953.3 -1.2 31
2019-07-21 15:00:00 37.4 0 Calma 17 Oeste 0 954 -0.4 32
2019-07-21 14:00:00 36.2 5 Oeste 14 Oeste 0 954.1 -0.2 33
2019-07-21 13:00:00 34 2 Oeste 11 Oeste 0 954.5 0.1 37
2019-07-21 12:00:00 32.8 2 Noroeste 8 Noroeste 0 954.4 0.1 41
2019-07-21 11:00:00 30.4 0 Calma 8 Noroeste 0 954.3 0.6 44
2019-07-21 10:00:00 27.6 4 Oeste 8 Oeste 0 954.4 1 48
2019-07-21 09:00:00 24.7 3 Sudoeste 10 Sudoeste 0 954.3 1.2 52
2019-07-21 08:00:00 22.3 7 Oeste 11 Sudoeste 0 953.7 0.7 56
2019-07-21 07:00:00 22 4 Sudoeste 10 Oeste 0 953.4 0.5 55
2019-07-21 06:00:00 22.7 6 Oeste 9 Oeste 0 953.1 -0.1 54
2019-07-21 05:00:00 23.6 6 Oeste 12 Oeste 0 953 0.2 51
2019-07-21 04:00:00 24.5 10 Oeste 14 Oeste 0 952.9 0.2 48
2019-07-21 03:00:00 25.6 10 Oeste 19 Oeste 0 953.2 1 46
2019-07-21 02:00:00 26.6 13 Oeste 24 Oeste 0 952.8 0.9 39
2019-07-21 01:00:00 28.1 15 Noroeste 21 Noroeste 0 952.7 1.5 36
2019-07-21 00:00:00 27.3 8 Oeste 10 Noroeste 0 952.2 1.7 37
2019-07-20 23:00:00 28.4 8 Noroeste 12 Noroeste 0 951.9 1.7 35
2019-07-20 22:00:00 30.8 10 Noroeste 22 Noroeste 0 951.2 1.1 33
2019-07-20 21:00:00 33.5 17 Norte 23 Noroeste 0 950.5 0.3 30
2019-07-20 20:00:00 35.3 15 Norte 26 Noroeste 0 950.2 0 30
2019-07-20 19:00:00 36.4 15 Noroeste 30 Norte 0 950.1 -0.4 30
2019-07-20 18:00:00 36.6 14 Norte 30 Norte 0 950.2 -0.7 30
2019-07-20 17:00:00 37.2 10 Norte 23 Noroeste 0 950.2 -1.1 30
2019-07-20 16:00:00 36.8 12 Noroeste 20 Noroeste 0 950.5 -0.9 32
2019-07-20 15:00:00 35.5 10 Oeste 21 Noroeste 0 950.9 -0.7 33
2019-07-20 14:00:00 35.1 5 Norte 17 Noroeste 0 951.3 -0.1 33
2019-07-20 13:00:00 34.2 7 Oeste 15 Oeste 0 951.4 0.2 34
2019-07-20 12:00:00 32.3 6 Noroeste 13 Noroeste 0 951.6 0.7 36
2019-07-20 11:00:00 30.9 4 Oeste 11 Sudoeste 0 951.4 0.9 39
2019-07-20 10:00:00 28.8 6 Oeste 15 Sudoeste 0 951.2 1.2 42
2019-07-20 09:00:00 26.2 8 Sudoeste 15 Oeste 0 950.9 1.2 47
2019-07-20 08:00:00 23.4 8 Sudoeste 16 Sudoeste 0 950.5 0.9 50
2019-07-20 07:00:00 22.7 12 Sudoeste 19 Sudoeste 0 950 0.5 50
2019-07-20 06:00:00 23.5 12 Sudoeste 21 Sudoeste 0 949.7 0.4 49
2019-07-20 05:00:00 24.2 12 Sudoeste 18 Sudoeste 0 949.6 0.5 46
2019-07-20 04:00:00 24.8 11 Sudoeste 19 Sudoeste 0 949.5 0.7 42
2019-07-20 03:00:00 26 12 Sudoeste 26 Oeste 0 949.3 0.4 37
2019-07-20 02:00:00 27.5 13 Sudoeste 20 Sudoeste 0 949.1 0.5 33
2019-07-20 01:00:00 28.2 9 Sudoeste 14 Sudoeste 0 948.8 0.9 32
2019-07-20 00:00:00 29.6 11 Sudoeste 18 Oeste 0 948.9 1.3 30
2019-07-19 23:00:00 30.3 14 Oeste 22 Oeste 0 948.6 1.3 29
2019-07-19 22:00:00 32.2 8 Sudoeste 18 Sudoeste 0 947.9 0.4 27
2019-07-19 21:00:00 35.5 14 Sudoeste 22 Noroeste 0 947.6 -0.2 26
2019-07-19 20:00:00 37.4 8 Oeste 22 Oeste 0 947.3 -0.9 26
2019-07-19 19:00:00 37.9 8 Oeste 19 Sudoeste 0 947.5 -1.5 26
2019-07-19 18:00:00 38.1 10 Sudoeste 20 Sudoeste 0 947.8 -1.8 27
2019-07-19 17:00:00 37.8 9 Oeste 22 Oeste 0 948.2 -2.1 28
2019-07-19 16:00:00 37.1 11 Sudoeste 24 Sudoeste 0 949 -1.6 30
2019-07-19 15:00:00 35.9 5 Nordeste 23 Sudeste 0 949.6 -1.6 30
2019-07-19 14:00:00 34.4 11 Sudeste 20 Sur 0 950.3 -1 32
2019-07-19 13:00:00 33.8 3 Nordeste 18 Este 0 950.6 -0.8 35
2019-07-19 12:00:00 33.4 3 Sur 13 Sur 0 951.2 0.2 36
2019-07-19 11:00:00 31.4 5 Sur 12 Sur 0 951.3 0.7 39
2019-07-19 10:00:00 28.6 0 Calma 10 Este 0 951.4 1 43
2019-07-19 09:00:00 25.9 0 Calma 9 Sudeste 0 951 0.7 47
2019-07-19 08:00:00 20.8 6 Sudeste 8 Sudeste 0 950.6 0.4 52
2019-07-19 07:00:00 20.5 6 Sur 7 Sur 0 950.4 -0.1 52
2019-07-19 06:00:00 21 5 Sudeste 8 Sudoeste 0 950.3 -0.2 51
2019-07-19 05:00:00 23.1 6 Sudoeste 9 Sudoeste 0 950.2 -0.5 46
2019-07-19 04:00:00 23.6 6 Oeste 13 Oeste 0 950.5 -0.2 45
2019-07-19 03:00:00 25.1 9 Sudoeste 13 Sudoeste 0 950.5 -0.2 43
2019-07-19 02:00:00 26 11 Sudoeste 14 Sudoeste 0 950.7 0.3 41
2019-07-19 01:00:00 27 7 Sudoeste 12 Oeste 0 950.7 1 39
2019-07-19 00:00:00 27.9 7 Oeste 17 Sudoeste 0 950.7 1.4 39